createdAt,value
2019-01-14T00:00:09.649Z,0.00
2019-01-14T00:01:09.587Z,0.00
2019-01-14T00:02:09.575Z,0.00
2019-01-14T00:03:09.583Z,0.00
2019-01-14T00:04:09.555Z,0.00
2019-01-14T00:05:09.539Z,0.00
2019-01-14T00:06:10.235Z,0.00
2019-01-14T00:07:09.519Z,0.00
2019-01-14T00:08:09.503Z,0.00
2019-01-14T00:09:09.509Z,0.00
2019-01-14T00:10:09.483Z,0.00
2019-01-14T00:11:09.477Z,0.00
2019-01-14T00:12:09.500Z,0.00
2019-01-14T00:13:09.451Z,0.00
2019-01-14T00:14:09.457Z,0.00
2019-01-14T00:15:09.431Z,0.00
2019-01-14T00:16:09.419Z,0.00
2019-01-14T00:17:09.406Z,0.00
2019-01-14T00:18:09.409Z,0.00
2019-01-14T00:19:09.386Z,0.00
2019-01-14T00:20:09.386Z,0.00
2019-01-14T00:21:09.371Z,0.00
2019-01-14T00:22:09.350Z,0.00
2019-01-14T00:23:09.342Z,0.00
2019-01-14T00:24:09.342Z,0.00
2019-01-14T00:25:09.312Z,0.00
2019-01-14T00:26:10.825Z,0.00
2019-01-14T00:27:09.292Z,0.00
2019-01-14T00:28:09.287Z,0.00
2019-01-14T00:29:09.271Z,0.00
2019-01-14T00:30:09.291Z,0.00
2019-01-14T00:31:09.251Z,0.00
2019-01-14T00:32:09.248Z,0.00
2019-01-14T00:33:09.225Z,0.00
2019-01-14T00:34:09.212Z,0.00
2019-01-14T00:35:09.205Z,0.00
2019-01-14T00:36:09.207Z,0.00
2019-01-14T00:37:09.211Z,0.00
2019-01-14T00:38:09.169Z,0.00
2019-01-14T00:39:09.160Z,0.00
2019-01-14T00:40:09.146Z,0.00
2019-01-14T00:41:09.190Z,0.00
2019-01-14T00:42:09.166Z,0.00
2019-01-14T00:43:09.135Z,0.00
2019-01-14T00:44:09.100Z,0.00
2019-01-14T00:45:09.089Z,0.00
2019-01-14T00:46:09.077Z,0.00
2019-01-14T00:47:09.068Z,0.00
2019-01-14T00:48:09.111Z,0.00
2019-01-14T00:49:09.077Z,0.00
2019-01-14T00:50:09.038Z,0.00
2019-01-14T00:51:09.024Z,0.00
2019-01-14T00:52:09.009Z,0.00
2019-01-14T00:53:08.998Z,0.00
2019-01-14T00:54:10.633Z,0.00
2019-01-14T00:55:08.992Z,0.00
2019-01-14T00:56:08.971Z,0.00
2019-01-14T00:57:08.958Z,0.00
2019-01-14T00:58:08.944Z,0.00
2019-01-14T00:59:08.933Z,0.00
2019-01-14T01:00:08.967Z,0.00
2019-01-14T01:01:08.911Z,0.00
2019-01-14T01:02:08.901Z,0.00
2019-01-14T01:03:08.888Z,0.00
2019-01-14T01:04:08.879Z,0.00
2019-01-14T01:05:08.867Z,0.00
2019-01-14T01:06:08.931Z,0.00
2019-01-14T01:07:08.849Z,0.00
2019-01-14T01:08:08.831Z,0.00
2019-01-14T01:09:08.819Z,0.00
2019-01-14T01:10:08.813Z,0.00
2019-01-14T01:11:08.796Z,0.00
2019-01-14T01:12:08.859Z,0.00
2019-01-14T01:13:08.790Z,0.00
2019-01-14T01:14:08.764Z,0.00
2019-01-14T01:15:08.756Z,0.00
2019-01-14T01:16:08.742Z,0.00
2019-01-14T01:17:08.733Z,0.00
2019-01-14T01:18:08.779Z,0.00
2019-01-14T01:19:08.710Z,0.00
2019-01-14T01:20:08.702Z,0.00
2019-01-14T01:21:08.684Z,0.00
2019-01-14T01:22:08.674Z,0.00
2019-01-14T01:23:08.694Z,0.00
2019-01-14T01:24:08.698Z,0.00
2019-01-14T01:25:08.645Z,0.00
2019-01-14T01:26:08.634Z,0.00
2019-01-14T01:27:08.620Z,0.00
2019-01-14T01:28:08.612Z,0.00
2019-01-14T01:29:08.610Z,0.00
2019-01-14T01:30:08.625Z,0.00
2019-01-14T01:31:08.579Z,0.00
2019-01-14T01:32:08.560Z,0.00
2019-01-14T01:33:08.553Z,0.00
2019-01-14T01:34:08.538Z,0.00
2019-01-14T01:35:08.559Z,0.00
2019-01-14T01:36:08.539Z,0.00
2019-01-14T01:37:08.506Z,0.00
2019-01-14T01:38:08.496Z,0.00
2019-01-14T01:39:08.487Z,0.00
2019-01-14T01:40:08.474Z,0.00
2019-01-14T01:41:08.476Z,0.00
2019-01-14T01:42:08.496Z,0.00
2019-01-14T01:43:08.440Z,0.00
2019-01-14T01:44:08.427Z,0.00
2019-01-14T01:45:08.420Z,0.00
2019-01-14T01:46:08.425Z,0.00
2019-01-14T01:47:08.395Z,0.00
2019-01-14T01:48:08.414Z,0.00
2019-01-14T01:49:08.373Z,0.00
2019-01-14T01:50:08.363Z,0.00
2019-01-14T01:51:08.350Z,0.00
2019-01-14T01:52:08.406Z,0.00
2019-01-14T01:53:08.327Z,0.00
2019-01-14T01:54:08.337Z,0.00
2019-01-14T01:55:08.304Z,0.00
2019-01-14T01:56:08.290Z,0.00
2019-01-14T01:57:08.287Z,0.00
2019-01-14T01:58:08.287Z,0.00
2019-01-14T01:59:08.257Z,0.00
2019-01-14T02:00:08.284Z,0.00
2019-01-14T02:01:08.237Z,0.00
2019-01-14T02:02:08.226Z,0.00
2019-01-14T02:03:08.239Z,0.00
2019-01-14T02:04:08.204Z,0.00
2019-01-14T02:05:08.192Z,0.00
2019-01-14T02:06:08.204Z,0.00
2019-01-14T02:07:08.168Z,0.00
2019-01-14T02:08:08.162Z,0.00
2019-01-14T02:09:08.167Z,0.00
2019-01-14T02:10:08.140Z,0.00
2019-01-14T02:11:08.122Z,0.00
2019-01-14T02:12:08.131Z,0.00
2019-01-14T02:13:08.100Z,0.00
2019-01-14T02:14:08.091Z,0.00
2019-01-14T02:15:08.100Z,0.00
2019-01-14T02:16:08.068Z,0.00
2019-01-14T02:17:08.059Z,0.00
2019-01-14T02:18:08.074Z,0.00
2019-01-14T02:19:08.036Z,0.00
2019-01-14T02:20:08.024Z,0.00
2019-01-14T02:21:08.034Z,0.00
2019-01-14T02:22:08.003Z,0.00
2019-01-14T02:23:07.993Z,0.00
2019-01-14T02:24:08.001Z,0.00
2019-01-14T02:25:07.973Z,0.00
2019-01-14T02:26:07.957Z,0.00
2019-01-14T02:27:07.962Z,0.00
2019-01-14T02:28:07.953Z,0.00
2019-01-14T02:29:07.929Z,0.00
2019-01-14T02:30:07.933Z,0.00
2019-01-14T02:31:07.908Z,0.00
2019-01-14T02:32:07.890Z,0.00
2019-01-14T02:33:07.876Z,0.00
2019-01-14T02:34:07.883Z,0.00
2019-01-14T02:35:07.856Z,0.00
2019-01-14T02:36:07.884Z,0.00
2019-01-14T02:37:07.836Z,0.00
2019-01-14T02:38:07.822Z,0.00
2019-01-14T02:39:07.828Z,0.00
2019-01-14T02:40:07.805Z,0.00
2019-01-14T02:41:07.787Z,0.00
2019-01-14T02:42:07.794Z,0.00
2019-01-14T02:43:07.781Z,0.00
2019-01-14T02:44:07.777Z,0.00
2019-01-14T02:45:07.761Z,0.00
2019-01-14T02:46:07.733Z,0.00
2019-01-14T02:47:07.725Z,0.00
2019-01-14T02:48:07.739Z,0.00
2019-01-14T02:49:07.697Z,0.00
2019-01-14T02:50:07.715Z,0.00
2019-01-14T02:51:07.675Z,0.00
2019-01-14T02:52:07.665Z,0.00
2019-01-14T02:53:07.662Z,0.00
2019-01-14T02:54:07.657Z,0.00
2019-01-14T02:55:07.631Z,0.00
2019-01-14T02:56:07.637Z,0.00
2019-01-14T02:57:15.212Z,0.00
2019-01-14T02:58:07.627Z,0.00
2019-01-14T02:59:07.643Z,0.00
2019-01-14T03:00:07.582Z,0.00
2019-01-14T03:01:07.576Z,0.00
2019-01-14T03:02:07.563Z,0.00
2019-01-14T03:03:07.566Z,0.00
2019-01-14T03:04:07.538Z,0.00
2019-01-14T03:05:07.529Z,0.00
2019-01-14T03:06:07.516Z,0.00
2019-01-14T03:07:07.526Z,0.00
2019-01-14T03:08:07.507Z,0.00
2019-01-14T03:09:07.483Z,0.00
2019-01-14T03:10:07.487Z,0.00
2019-01-14T03:11:07.456Z,0.00
2019-01-14T03:12:07.444Z,0.00
2019-01-14T03:13:07.478Z,0.00
2019-01-14T03:14:07.427Z,0.00
2019-01-14T03:15:07.413Z,0.00
2019-01-14T03:16:07.421Z,0.00
2019-01-14T03:17:07.396Z,0.00
2019-01-14T03:18:07.374Z,0.00
2019-01-14T03:19:07.408Z,0.00
2019-01-14T03:20:07.358Z,0.00
2019-01-14T03:21:07.339Z,0.00
2019-01-14T03:22:07.342Z,0.00
2019-01-14T03:23:07.318Z,0.00
2019-01-14T03:24:07.308Z,0.00
2019-01-14T03:25:07.323Z,0.00
2019-01-14T03:26:07.288Z,0.00
2019-01-14T03:27:07.278Z,0.00
2019-01-14T03:28:07.265Z,0.00
2019-01-14T03:29:07.254Z,0.00
2019-01-14T03:30:07.266Z,0.00
2019-01-14T03:31:07.230Z,0.00
2019-01-14T03:32:07.223Z,0.00
2019-01-14T03:33:07.234Z,0.00
2019-01-14T03:34:07.219Z,0.00
2019-01-14T03:35:07.183Z,0.00
2019-01-14T03:36:07.190Z,0.00
2019-01-14T03:37:07.161Z,0.00
2019-01-14T03:38:07.157Z,0.00
2019-01-14T03:39:07.151Z,0.00
2019-01-14T03:40:07.130Z,0.00
2019-01-14T03:41:07.119Z,0.00
2019-01-14T03:42:07.156Z,0.00
2019-01-14T03:43:07.096Z,0.00
2019-01-14T03:44:07.088Z,0.00
2019-01-14T03:45:07.079Z,0.00
2019-01-14T03:46:07.072Z,0.00
2019-01-14T03:47:07.051Z,0.00
2019-01-14T03:48:07.053Z,0.00
2019-01-14T03:49:07.028Z,0.00
2019-01-14T03:50:07.016Z,0.00
2019-01-14T03:51:07.008Z,0.00
2019-01-14T03:52:07.000Z,0.00
2019-01-14T03:53:07.016Z,0.00
2019-01-14T03:54:06.972Z,0.00
2019-01-14T03:55:06.962Z,0.00
2019-01-14T03:56:06.951Z,0.00
2019-01-14T03:57:07.063Z,0.00
2019-01-14T03:58:06.929Z,0.00
2019-01-14T03:59:06.936Z,0.00
2019-01-14T04:00:06.922Z,0.00
2019-01-14T04:01:06.894Z,0.00
2019-01-14T04:02:06.882Z,0.00
2019-01-14T04:03:06.869Z,0.00
2019-01-14T04:04:06.860Z,0.00
2019-01-14T04:05:06.872Z,0.00
2019-01-14T04:06:06.842Z,0.00
2019-01-14T04:07:13.566Z,0.00
2019-01-14T04:08:07.810Z,0.00
2019-01-14T04:09:06.806Z,0.00
2019-01-14T04:10:06.811Z,0.00
2019-01-14T04:11:06.780Z,0.00
2019-01-14T04:12:06.791Z,0.00
2019-01-14T04:13:06.759Z,0.00
2019-01-14T04:14:06.788Z,0.00
2019-01-14T04:15:06.735Z,0.00
2019-01-14T04:16:06.738Z,0.00
2019-01-14T04:17:06.712Z,0.00
2019-01-14T04:18:06.706Z,0.00
2019-01-14T04:19:06.692Z,0.00
2019-01-14T04:20:06.679Z,0.00
2019-01-14T04:21:06.669Z,0.00
2019-01-14T04:22:06.673Z,0.00
2019-01-14T04:23:06.645Z,0.00
2019-01-14T04:24:06.685Z,0.00
2019-01-14T04:25:06.623Z,0.00
2019-01-14T04:26:06.619Z,0.00
2019-01-14T04:27:06.598Z,0.00
2019-01-14T04:28:06.623Z,0.00
2019-01-14T04:29:06.588Z,0.00
2019-01-14T04:30:06.579Z,0.00
2019-01-14T04:31:06.555Z,0.00
2019-01-14T04:32:06.546Z,0.00
2019-01-14T04:33:06.534Z,0.00
2019-01-14T04:34:06.538Z,0.00
2019-01-14T04:35:06.511Z,0.00
2019-01-14T04:36:06.500Z,0.00
2019-01-14T04:37:06.488Z,0.00
2019-01-14T04:38:06.476Z,0.00
2019-01-14T04:39:06.491Z,0.00
2019-01-14T04:40:06.457Z,0.00
2019-01-14T04:41:06.455Z,0.00
2019-01-14T04:42:06.440Z,0.00
2019-01-14T04:43:06.433Z,0.00
2019-01-14T04:44:06.416Z,0.00
2019-01-14T04:45:06.410Z,0.00
2019-01-14T04:46:06.402Z,0.00
2019-01-14T04:47:06.377Z,0.00
2019-01-14T04:48:06.370Z,0.00
2019-01-14T04:49:06.362Z,0.00
2019-01-14T04:50:06.349Z,0.00
2019-01-14T04:51:06.331Z,0.00
2019-01-14T04:52:06.335Z,0.00
2019-01-14T04:53:06.310Z,0.00
2019-01-14T04:54:06.297Z,0.00
2019-01-14T04:55:06.295Z,0.00
2019-01-14T04:56:06.293Z,0.00
2019-01-14T04:57:06.277Z,0.00
2019-01-14T04:58:06.304Z,0.00
2019-01-14T04:59:06.242Z,0.00
2019-01-14T05:00:06.236Z,0.00
2019-01-14T05:01:06.223Z,0.00
2019-01-14T05:02:06.212Z,0.00
2019-01-14T05:03:06.213Z,0.00
2019-01-14T05:04:06.199Z,0.00
2019-01-14T05:05:06.191Z,0.00
2019-01-14T05:06:06.163Z,0.00
2019-01-14T05:07:06.155Z,0.00
2019-01-14T05:08:06.159Z,0.00
2019-01-14T05:09:06.132Z,0.00
2019-01-14T05:10:06.116Z,0.00
2019-01-14T05:11:06.104Z,0.00
2019-01-14T05:12:06.105Z,0.00
2019-01-14T05:13:06.084Z,0.00
2019-01-14T05:14:06.082Z,0.00
2019-01-14T05:15:06.073Z,0.00
2019-01-14T05:16:06.081Z,0.00
2019-01-14T05:17:06.039Z,0.00
2019-01-14T05:18:06.025Z,0.00
2019-01-14T05:19:06.037Z,0.00
2019-01-14T05:20:06.022Z,0.00
2019-01-14T05:21:05.993Z,0.00
2019-01-14T05:22:05.989Z,0.00
2019-01-14T05:23:05.988Z,0.00
2019-01-14T05:24:05.964Z,0.00
2019-01-14T05:25:05.975Z,0.00
2019-01-14T05:26:05.965Z,0.00
2019-01-14T05:27:05.926Z,0.00
2019-01-14T05:28:05.919Z,0.00
2019-01-14T05:29:05.925Z,0.00
2019-01-14T05:30:05.913Z,0.00
2019-01-14T05:31:05.910Z,0.00
2019-01-14T05:32:05.885Z,0.00
2019-01-14T05:33:05.877Z,0.00
2019-01-14T05:34:05.849Z,0.00
2019-01-14T05:35:05.842Z,0.00
2019-01-14T05:36:05.848Z,0.00
2019-01-14T05:37:05.818Z,0.00
2019-01-14T05:38:05.804Z,0.00
2019-01-14T05:39:05.794Z,0.00
2019-01-14T05:40:05.783Z,0.00
2019-01-14T05:41:05.775Z,0.00
2019-01-14T05:42:05.776Z,0.00
2019-01-14T05:43:05.747Z,0.00
2019-01-14T05:44:05.746Z,0.00
2019-01-14T05:45:05.731Z,0.00
2019-01-14T05:46:05.715Z,0.00
2019-01-14T05:47:05.716Z,0.00
2019-01-14T05:48:05.712Z,0.00
2019-01-14T05:49:05.712Z,0.00
2019-01-14T05:50:05.680Z,0.00
2019-01-14T05:51:05.678Z,0.00
2019-01-14T05:52:05.647Z,0.00
2019-01-14T05:53:05.641Z,0.00
2019-01-14T05:54:05.643Z,0.00
2019-01-14T05:55:05.615Z,0.00
2019-01-14T05:56:05.604Z,0.00
2019-01-14T05:57:05.590Z,0.00
2019-01-14T05:58:05.582Z,32.00
2019-01-14T05:59:05.570Z,32.00
2019-01-14T06:00:05.574Z,32.00
2019-01-14T06:01:05.544Z,32.00
2019-01-14T06:02:05.534Z,32.00
2019-01-14T06:03:05.521Z,32.00
2019-01-14T06:04:05.547Z,32.00
2019-01-14T06:05:05.504Z,32.00
2019-01-14T06:06:05.504Z,28.00
2019-01-14T06:07:05.478Z,32.00
2019-01-14T06:08:05.466Z,32.00
2019-01-14T06:09:05.456Z,28.00
2019-01-14T06:10:05.460Z,32.00
2019-01-14T06:11:05.467Z,32.00
2019-01-14T06:12:05.442Z,28.00
2019-01-14T06:13:05.414Z,32.00
2019-01-14T06:14:05.401Z,0.00
2019-01-14T06:15:05.395Z,0.00
2019-01-14T06:16:05.396Z,0.00
2019-01-14T06:17:05.370Z,0.00
2019-01-14T06:18:05.360Z,0.00
2019-01-14T06:19:05.356Z,0.00
2019-01-14T06:20:05.333Z,0.00
2019-01-14T06:21:05.335Z,0.00
2019-01-14T06:22:05.331Z,0.00
2019-01-14T06:23:05.315Z,0.00
2019-01-14T06:24:05.292Z,0.00
2019-01-14T06:25:05.306Z,0.00
2019-01-14T06:26:05.287Z,0.00
2019-01-14T06:27:05.278Z,0.00
2019-01-14T06:28:05.301Z,0.00
2019-01-14T06:29:05.239Z,0.00
2019-01-14T06:30:05.223Z,0.00
2019-01-14T06:31:05.209Z,0.00
2019-01-14T06:32:05.220Z,0.00
2019-01-14T06:33:05.190Z,0.00
2019-01-14T06:34:05.222Z,0.00
2019-01-14T06:35:05.165Z,0.00
2019-01-14T06:36:05.155Z,0.00
2019-01-14T06:37:05.144Z,0.00
2019-01-14T06:38:05.136Z,0.00
2019-01-14T06:39:05.120Z,0.00
2019-01-14T06:40:05.144Z,0.00
2019-01-14T06:41:05.096Z,0.00
2019-01-14T06:42:07.499Z,0.00
2019-01-14T06:43:05.084Z,0.00
2019-01-14T06:44:05.079Z,0.00
2019-01-14T06:45:05.085Z,0.00
2019-01-14T06:46:05.066Z,0.00
2019-01-14T06:47:05.037Z,0.00
2019-01-14T06:48:05.034Z,0.00
2019-01-14T06:49:05.032Z,0.00
2019-01-14T06:50:05.030Z,0.00
2019-01-14T06:51:05.021Z,0.00
2019-01-14T06:52:05.002Z,0.00
2019-01-14T06:53:04.979Z,0.00
2019-01-14T06:54:04.975Z,0.00
2019-01-14T06:55:04.961Z,0.00
2019-01-14T06:56:04.948Z,0.00
2019-01-14T06:57:04.954Z,0.00
2019-01-14T06:58:04.927Z,0.00
2019-01-14T06:59:04.896Z,0.00
2019-01-14T07:00:04.885Z,0.00
2019-01-14T07:01:04.903Z,0.00
2019-01-14T07:02:04.911Z,0.00
2019-01-14T07:03:04.848Z,0.00
2019-01-14T07:04:04.862Z,0.00
2019-01-14T07:05:04.842Z,0.00
2019-01-14T07:06:04.839Z,0.00
2019-01-14T07:07:04.827Z,4.00
2019-01-14T07:08:04.826Z,0.00
2019-01-14T07:09:04.801Z,0.00
2019-01-14T07:10:04.799Z,0.00
2019-01-14T07:11:04.771Z,0.00
2019-01-14T07:12:04.774Z,0.00
2019-01-14T07:13:04.771Z,0.00
2019-01-14T07:14:04.748Z,0.00
2019-01-14T07:15:04.735Z,0.00
2019-01-14T07:16:04.719Z,0.00
2019-01-14T07:17:04.698Z,4.00
2019-01-14T07:18:04.730Z,0.00
2019-01-14T07:19:04.699Z,0.00
2019-01-14T07:20:04.686Z,4.00
2019-01-14T07:21:04.687Z,4.00
2019-01-14T07:22:04.646Z,0.00
2019-01-14T07:23:04.644Z,4.00
2019-01-14T07:24:04.652Z,4.00
2019-01-14T07:25:04.632Z,4.00
2019-01-14T07:26:04.629Z,4.00
2019-01-14T07:27:04.617Z,4.00
2019-01-14T07:28:04.592Z,0.00
2019-01-14T07:29:04.835Z,4.00
2019-01-14T07:30:04.577Z,4.00
2019-01-14T07:31:04.561Z,4.00
2019-01-14T07:32:04.529Z,4.00
2019-01-14T07:33:04.521Z,4.00
2019-01-14T07:34:04.525Z,8.00
2019-01-14T07:35:04.529Z,8.00
2019-01-14T07:36:04.526Z,8.00
2019-01-14T07:37:04.484Z,8.00
2019-01-14T07:38:06.848Z,16.00
2019-01-14T07:39:04.465Z,16.00
2019-01-14T07:40:05.351Z,20.00
2019-01-14T07:41:04.460Z,32.00
2019-01-14T07:42:04.457Z,32.00
2019-01-14T07:43:04.419Z,40.00
2019-01-14T07:44:04.402Z,60.00
2019-01-14T07:45:04.389Z,64.00
2019-01-14T07:46:04.395Z,68.00
2019-01-14T07:47:04.397Z,84.00
2019-01-14T07:48:04.374Z,88.00
2019-01-14T07:49:04.362Z,88.00
2019-01-14T07:50:04.333Z,108.00
2019-01-14T07:51:04.330Z,108.00
2019-01-14T07:52:04.306Z,108.00
2019-01-14T07:53:04.334Z,124.00
2019-01-14T07:54:04.298Z,132.00
2019-01-14T07:55:04.291Z,132.00
2019-01-14T07:56:04.260Z,152.00
2019-01-14T07:57:04.262Z,172.00
2019-01-14T07:58:04.271Z,156.00
2019-01-14T07:59:04.254Z,160.00
2019-01-14T08:00:04.246Z,188.00
2019-01-14T08:01:04.225Z,176.00
2019-01-14T08:02:04.215Z,188.00
2019-01-14T08:03:04.194Z,244.00
2019-01-14T08:04:04.206Z,268.00
2019-01-14T08:05:04.159Z,260.00
2019-01-14T08:06:04.163Z,324.00
2019-01-14T08:07:04.139Z,404.00
2019-01-14T08:08:04.127Z,332.00
2019-01-14T08:09:04.131Z,364.00
2019-01-14T08:10:04.102Z,432.00
2019-01-14T08:11:04.121Z,400.00
2019-01-14T08:12:04.124Z,396.00
2019-01-14T08:13:04.070Z,440.00
2019-01-14T08:14:04.062Z,356.00
2019-01-14T08:15:04.061Z,252.00
2019-01-14T08:16:04.038Z,244.00
2019-01-14T08:17:04.025Z,208.00
2019-01-14T08:18:04.044Z,148.00
2019-01-14T08:19:04.004Z,128.00
2019-01-14T08:20:04.028Z,152.00
2019-01-14T08:21:03.982Z,140.00
2019-01-14T08:22:04.002Z,136.00
2019-01-14T08:23:03.970Z,188.00
2019-01-14T08:24:03.957Z,224.00
2019-01-14T08:25:03.950Z,216.00
2019-01-14T08:26:03.929Z,252.00
2019-01-14T08:27:03.913Z,320.00
2019-01-14T08:28:03.931Z,356.00
2019-01-14T08:29:03.891Z,420.00
2019-01-14T08:30:03.884Z,544.00
2019-01-14T08:31:03.893Z,580.00
2019-01-14T08:32:03.871Z,708.00
2019-01-14T08:33:03.847Z,1024.00
2019-01-14T08:34:03.848Z,1128.00
2019-01-14T08:35:03.825Z,1140.00
2019-01-14T08:36:03.813Z,1252.00
2019-01-14T08:37:03.833Z,1364.00
2019-01-14T08:38:03.792Z,1396.00
2019-01-14T08:39:03.797Z,3612.00
2019-01-14T08:40:03.771Z,7116.00
2019-01-14T08:41:03.766Z,9056.00
2019-01-14T08:42:03.747Z,11204.00
2019-01-14T08:43:03.755Z,12016.00
2019-01-14T08:44:03.744Z,11000.00
2019-01-14T08:45:03.724Z,11052.00
2019-01-14T08:46:03.702Z,14976.00
2019-01-14T08:47:03.691Z,14336.00
2019-01-14T08:48:03.680Z,1232.00
2019-01-14T08:49:03.684Z,508.00
2019-01-14T08:50:03.674Z,360.00
2019-01-14T08:51:03.645Z,312.00
2019-01-14T08:52:03.638Z,256.00
2019-01-14T08:53:03.624Z,320.00
2019-01-14T08:54:03.616Z,304.00
2019-01-14T08:55:03.610Z,320.00
2019-01-14T08:56:03.606Z,348.00
2019-01-14T08:57:03.581Z,464.00
2019-01-14T08:58:03.567Z,552.00
2019-01-14T08:59:03.558Z,568.00
2019-01-14T09:00:03.548Z,568.00
2019-01-14T09:01:03.569Z,732.00
2019-01-14T09:02:03.521Z,900.00
2019-01-14T09:03:03.513Z,736.00
2019-01-14T09:04:03.503Z,560.00
2019-01-14T09:05:03.488Z,536.00
2019-01-14T09:06:03.478Z,512.00
2019-01-14T09:07:03.498Z,540.00
2019-01-14T09:08:03.455Z,472.00
2019-01-14T09:09:03.445Z,484.00
2019-01-14T09:10:03.432Z,596.00
2019-01-14T09:11:03.422Z,728.00
2019-01-14T09:12:03.410Z,1072.00
2019-01-14T09:13:03.425Z,5188.00
2019-01-14T09:14:03.389Z,3632.00
2019-01-14T09:15:03.406Z,6672.00
2019-01-14T09:16:03.383Z,2124.00
2019-01-14T09:17:03.372Z,1644.00
2019-01-14T09:18:03.345Z,2204.00
2019-01-14T09:19:03.353Z,3888.00
2019-01-14T09:20:03.341Z,8928.00
2019-01-14T09:21:03.334Z,4432.00
2019-01-14T09:22:03.301Z,8216.00
2019-01-14T09:23:03.307Z,3112.00
2019-01-14T09:24:03.277Z,1968.00
2019-01-14T09:25:03.284Z,3228.00
2019-01-14T09:26:03.256Z,2416.00
2019-01-14T09:27:03.244Z,1740.00
2019-01-14T09:28:03.236Z,1484.00
2019-01-14T09:29:03.233Z,2452.00
2019-01-14T09:30:03.227Z,1940.00
2019-01-14T09:31:03.224Z,1884.00
2019-01-14T09:32:03.190Z,1980.00
2019-01-14T09:33:03.177Z,2108.00
2019-01-14T09:34:03.165Z,2156.00
2019-01-14T09:35:03.155Z,2232.00
2019-01-14T09:36:03.160Z,2272.00
2019-01-14T09:37:03.143Z,2180.00
2019-01-14T09:38:03.132Z,2220.00
2019-01-14T09:39:03.124Z,1940.00
2019-01-14T09:40:03.098Z,1868.00
2019-01-14T09:41:03.993Z,2160.00
2019-01-14T09:42:03.099Z,1960.00
2019-01-14T09:43:03.064Z,2040.00
2019-01-14T09:44:03.053Z,1648.00
2019-01-14T09:45:03.054Z,2008.00
2019-01-14T09:46:03.031Z,1904.00
2019-01-14T09:47:03.021Z,1188.00
2019-01-14T09:48:03.021Z,1908.00
2019-01-14T09:49:02.997Z,1676.00
2019-01-14T09:50:02.989Z,1564.00
2019-01-14T09:51:02.991Z,1492.00
2019-01-14T09:52:02.975Z,1512.00
2019-01-14T09:53:02.990Z,1508.00
2019-01-14T09:54:02.965Z,1464.00
2019-01-14T09:55:05.728Z,1524.00
2019-01-14T09:56:02.947Z,1392.00
2019-01-14T09:57:02.917Z,1444.00
2019-01-14T09:58:02.911Z,1440.00
2019-01-14T09:59:02.887Z,1392.00
2019-01-14T10:00:02.873Z,1444.00
2019-01-14T10:01:02.865Z,1360.00
2019-01-14T10:02:02.878Z,1420.00
2019-01-14T10:03:02.852Z,1416.00
2019-01-14T10:04:02.842Z,1368.00
2019-01-14T10:05:02.818Z,1372.00
2019-01-14T10:06:02.819Z,1268.00
2019-01-14T10:07:02.795Z,1372.00
2019-01-14T10:08:02.827Z,1300.00
2019-01-14T10:09:03.897Z,1352.00
2019-01-14T10:10:02.760Z,1388.00
2019-01-14T10:11:02.774Z,1376.00
2019-01-14T10:12:02.760Z,1488.00
2019-01-14T10:13:02.727Z,1468.00
2019-01-14T10:14:02.740Z,1484.00
2019-01-14T10:15:02.714Z,1508.00
2019-01-14T10:16:02.695Z,1200.00
2019-01-14T10:17:02.709Z,1104.00
2019-01-14T10:18:02.673Z,1032.00
2019-01-14T10:19:02.659Z,1092.00
2019-01-14T10:20:02.648Z,1284.00
2019-01-14T10:21:02.646Z,1268.00
2019-01-14T10:22:02.628Z,1252.00
2019-01-14T10:23:02.630Z,1200.00
2019-01-14T10:24:02.605Z,1108.00
2019-01-14T10:25:02.607Z,1188.00
2019-01-14T10:26:02.589Z,948.00
2019-01-14T10:27:02.625Z,852.00
2019-01-14T10:28:02.558Z,688.00
2019-01-14T10:29:02.548Z,488.00
2019-01-14T10:30:02.538Z,460.00
2019-01-14T10:31:02.527Z,376.00
2019-01-14T10:32:02.514Z,364.00
2019-01-14T10:33:02.525Z,452.00
2019-01-14T10:34:02.493Z,368.00
2019-01-14T10:35:02.503Z,412.00
2019-01-14T10:36:02.470Z,424.00
2019-01-14T10:37:02.459Z,440.00
2019-01-14T10:38:02.462Z,472.00
2019-01-14T10:39:02.447Z,376.00
2019-01-14T10:40:02.427Z,440.00
2019-01-14T10:41:02.415Z,560.00
2019-01-14T10:42:05.014Z,520.00
2019-01-14T10:43:02.395Z,596.00
2019-01-14T10:44:02.407Z,552.00
2019-01-14T10:45:02.386Z,560.00
2019-01-14T10:46:02.374Z,568.00
2019-01-14T10:47:02.365Z,560.00
2019-01-14T10:48:02.361Z,536.00
2019-01-14T10:49:06.601Z,420.00
2019-01-14T10:50:02.327Z,272.00
2019-01-14T10:51:02.312Z,320.00
2019-01-14T10:52:02.321Z,348.00
2019-01-14T10:53:02.294Z,400.00
2019-01-14T10:54:02.271Z,436.00
2019-01-14T10:55:02.274Z,328.00
2019-01-14T10:56:02.247Z,316.00
2019-01-14T10:57:02.277Z,316.00
2019-01-14T10:58:02.233Z,220.00
2019-01-14T10:59:02.213Z,136.00
2019-01-14T11:00:02.202Z,144.00
2019-01-14T11:01:02.204Z,152.00
2019-01-14T11:02:02.185Z,268.00
2019-01-14T11:03:02.217Z,520.00
2019-01-14T11:04:02.158Z,468.00
2019-01-14T11:05:02.148Z,576.00
2019-01-14T11:06:02.184Z,920.00
2019-01-14T11:07:02.125Z,1052.00
2019-01-14T11:08:02.113Z,1472.00
2019-01-14T11:09:06.073Z,1560.00
2019-01-14T11:10:02.095Z,1584.00
2019-01-14T11:11:02.101Z,1624.00
2019-01-14T11:12:02.107Z,1500.00
2019-01-14T11:13:02.059Z,1352.00
2019-01-14T11:14:02.060Z,1424.00
2019-01-14T11:15:03.141Z,1304.00
2019-01-14T11:16:02.025Z,1256.00
2019-01-14T11:17:02.014Z,1288.00
2019-01-14T11:18:02.016Z,1204.00
2019-01-14T11:19:01.991Z,1232.00
2019-01-14T11:20:01.993Z,1316.00
2019-01-14T11:21:01.983Z,1248.00
2019-01-14T11:22:01.978Z,1088.00
2019-01-14T11:23:01.949Z,816.00
2019-01-14T11:24:01.964Z,1048.00
2019-01-14T11:25:02.542Z,1312.00
2019-01-14T11:26:01.930Z,1012.00
2019-01-14T11:27:01.966Z,1284.00
2019-01-14T11:28:01.917Z,1140.00
2019-01-14T11:29:01.881Z,872.00
2019-01-14T11:30:01.897Z,1308.00
2019-01-14T11:31:01.882Z,1284.00
2019-01-14T11:32:01.871Z,716.00
2019-01-14T11:33:01.845Z,1272.00
2019-01-14T11:34:01.830Z,736.00
2019-01-14T11:35:01.825Z,1276.00
2019-01-14T11:36:01.842Z,888.00
2019-01-14T11:37:01.808Z,1268.00
2019-01-14T11:38:01.810Z,1028.00
2019-01-14T11:39:05.182Z,1304.00
2019-01-14T11:40:01.761Z,1256.00
2019-01-14T11:41:01.785Z,1260.00
2019-01-14T11:42:01.765Z,1128.00
2019-01-14T11:43:01.743Z,1172.00
2019-01-14T11:44:01.731Z,1048.00
2019-01-14T11:45:01.725Z,1032.00
2019-01-14T11:46:01.708Z,1152.00
2019-01-14T11:47:01.710Z,1104.00
2019-01-14T11:48:01.676Z,1072.00
2019-01-14T11:49:01.691Z,1184.00
2019-01-14T11:50:01.666Z,1104.00
2019-01-14T11:51:01.682Z,1160.00
2019-01-14T11:52:01.685Z,1160.00
2019-01-14T11:53:01.653Z,1116.00
2019-01-14T11:54:01.604Z,1180.00
2019-01-14T11:55:01.595Z,1140.00
2019-01-14T11:56:01.654Z,1144.00
2019-01-14T11:57:01.616Z,1232.00
2019-01-14T11:58:01.715Z,1172.00
2019-01-14T11:59:01.587Z,1228.00
2019-01-14T12:00:01.537Z,952.00
2019-01-14T12:01:01.547Z,864.00
2019-01-14T12:02:01.512Z,1252.00
2019-01-14T12:03:01.499Z,1268.00
2019-01-14T12:04:01.540Z,1332.00
2019-01-14T12:05:01.492Z,1316.00
2019-01-14T12:06:01.465Z,1356.00
2019-01-14T12:07:01.458Z,1412.00
2019-01-14T12:08:01.463Z,1348.00
2019-01-14T12:09:01.457Z,1468.00
2019-01-14T12:10:01.423Z,1512.00
2019-01-14T12:11:01.427Z,652.00
2019-01-14T12:12:01.399Z,1376.00
2019-01-14T12:13:01.388Z,1600.00
2019-01-14T12:14:01.379Z,1724.00
2019-01-14T12:15:01.400Z,1572.00
2019-01-14T12:16:01.353Z,1596.00
2019-01-14T12:17:01.357Z,1580.00
2019-01-14T12:18:01.334Z,1572.00
2019-01-14T12:19:01.320Z,1656.00
2019-01-14T12:20:01.314Z,1548.00
2019-01-14T12:21:01.314Z,1736.00
2019-01-14T12:22:01.285Z,1512.00
2019-01-14T12:23:01.287Z,1328.00
2019-01-14T12:24:01.263Z,2000.00
2019-01-14T12:25:01.253Z,1168.00
2019-01-14T12:26:01.242Z,1964.00
2019-01-14T12:27:01.248Z,844.00
2019-01-14T12:28:01.232Z,956.00
2019-01-14T12:29:01.207Z,908.00
2019-01-14T12:30:01.195Z,760.00
2019-01-14T12:31:01.184Z,756.00
2019-01-14T12:32:01.174Z,656.00
2019-01-14T12:33:01.193Z,772.00
2019-01-14T12:34:01.150Z,680.00
2019-01-14T12:35:01.143Z,1260.00
2019-01-14T12:36:01.143Z,1504.00
2019-01-14T12:37:01.119Z,1736.00
2019-01-14T12:38:01.106Z,880.00
2019-01-14T12:39:01.102Z,564.00
2019-01-14T12:40:01.102Z,476.00
2019-01-14T12:41:01.094Z,352.00
2019-01-14T12:42:01.061Z,232.00
2019-01-14T12:43:01.055Z,208.00
2019-01-14T12:44:01.042Z,108.00
2019-01-14T12:45:01.030Z,96.00
2019-01-14T12:46:01.028Z,80.00
2019-01-14T12:47:01.035Z,68.00
2019-01-14T12:48:00.994Z,92.00
2019-01-14T12:49:00.983Z,92.00
2019-01-14T12:50:00.977Z,124.00
2019-01-14T12:51:00.960Z,180.00